createdAt,value
2023-03-15T00:01:22.130Z,100091
2023-03-15T00:07:29.169Z,100104
2023-03-15T00:13:31.557Z,100116
2023-03-15T00:19:26.630Z,100122
2023-03-15T00:25:35.148Z,100132
2023-03-15T00:31:33.557Z,100134
2023-03-15T00:37:24.803Z,100133
2023-03-15T00:43:18.413Z,100137
2023-03-15T00:49:38.105Z,100128
2023-03-15T00:55:31.512Z,100140
2023-03-15T01:01:22.631Z,100137
2023-03-15T01:07:14.057Z,100140
2023-03-15T01:13:10.845Z,100136
2023-03-15T01:19:22.126Z,100135
2023-03-15T01:25:22.963Z,100135
2023-03-15T01:31:21.035Z,100145
2023-03-15T01:37:26.030Z,100149
2023-03-15T01:43:19.531Z,100148
2023-03-15T01:49:34.304Z,100159
2023-03-15T01:55:25.709Z,100171
2023-03-15T02:01:41.792Z,100165
2023-03-15T02:07:36.632Z,100165
2023-03-15T02:13:41.541Z,100163
2023-03-15T02:20:04.493Z,100157
2023-03-15T02:26:04.957Z,100154
2023-03-15T02:31:59.045Z,100152
2023-03-15T02:37:58.073Z,100158
2023-03-15T02:43:49.345Z,100163
2023-03-15T02:49:54.019Z,100163
2023-03-15T02:55:56.406Z,100157
2023-03-15T03:01:51.097Z,100176
2023-03-15T03:07:45.093Z,100198
2023-03-15T03:13:42.011Z,100198
2023-03-15T03:19:56.748Z,100192
2023-03-15T03:25:46.642Z,100199
2023-03-15T03:31:38.430Z,100195
2023-03-15T03:37:28.073Z,100198
2023-03-15T03:43:31.563Z,100205
2023-03-15T03:49:21.528Z,100201
2023-03-15T03:55:24.697Z,100212
2023-03-15T04:01:15.033Z,100219
2023-03-15T04:07:17.166Z,100224
2023-03-15T04:13:21.193Z,100222
2023-03-15T04:19:10.552Z,100229
2023-03-15T04:25:01.645Z,100224
2023-03-15T04:30:53.261Z,100229
2023-03-15T04:36:46.064Z,100238
2023-03-15T04:42:37.764Z,100238
2023-03-15T04:48:33.607Z,100241
2023-03-15T04:54:28.748Z,100235
2023-03-15T05:00:28.664Z,100244
2023-03-15T05:06:29.238Z,100242
2023-03-15T05:12:20.178Z,100260
2023-03-15T05:18:12.133Z,100266
2023-03-15T05:24:03.521Z,100281
2023-03-15T05:29:56.005Z,100285
2023-03-15T05:35:48.628Z,100299
2023-03-15T05:41:53.493Z,100307
2023-03-15T05:47:45.096Z,100320
2023-03-15T05:53:35.409Z,100334
2023-03-15T05:59:28.203Z,100342
2023-03-15T06:05:23.723Z,100350
2023-03-15T06:11:21.305Z,100352
2023-03-15T06:17:13.907Z,100365
2023-03-15T06:23:07.934Z,100365
2023-03-15T06:29:04.545Z,100371
2023-03-15T06:34:55.947Z,100375
2023-03-15T06:40:57.850Z,100391
2023-03-15T06:46:55.463Z,100405
2023-03-15T06:52:45.593Z,100407
2023-03-15T06:58:33.878Z,100422
2023-03-15T07:04:25.387Z,100437
2023-03-15T07:10:17.677Z,100449
2023-03-15T07:16:08.719Z,100450
2023-03-15T07:22:00.282Z,100454
2023-03-15T07:27:52.165Z,100466
2023-03-15T07:33:44.874Z,100474
2023-03-15T07:39:37.596Z,100485
2023-03-15T07:45:43.591Z,100495
2023-03-15T07:51:45.077Z,100506
2023-03-15T07:57:41.184Z,100518
2023-03-15T08:03:35.968Z,100526
2023-03-15T08:09:38.256Z,100537
2023-03-15T08:15:31.223Z,100543
2023-03-15T08:21:23.192Z,100556
2023-03-15T08:27:14.691Z,100567
2023-03-15T08:33:06.441Z,100569
2023-03-15T08:39:05.457Z,100574
2023-03-15T08:45:09.163Z,100589
2023-03-15T08:51:06.696Z,100591
2023-03-15T08:56:57.346Z,100600
2023-03-15T09:02:51.817Z,100615
2023-03-15T09:08:45.050Z,100632
2023-03-15T09:14:39.093Z,100628
2023-03-15T09:20:38.448Z,100631
2023-03-15T09:26:36.614Z,100639
2023-03-15T09:32:30.225Z,100640
2023-03-15T09:38:28.976Z,100650
2023-03-15T09:44:19.381Z,100655
2023-03-15T09:50:14.853Z,100676
2023-03-15T09:56:06.162Z,100676
2023-03-15T10:02:11.141Z,100678
2023-03-15T10:08:18.275Z,100680
2023-03-15T10:14:22.933Z,100683
2023-03-15T10:20:18.078Z,100688
2023-03-15T10:26:24.705Z,100684
2023-03-15T10:32:16.185Z,100676
2023-03-15T10:38:08.460Z,100677
2023-03-15T10:44:02.528Z,100681
2023-03-15T10:50:22.919Z,100685
2023-03-15T11:02:42.894Z,100676
2023-03-15T11:15:11.648Z,100680
2023-03-15T11:27:23.658Z,100710
2023-03-15T11:33:25.032Z,100715
2023-03-15T11:39:18.539Z,100718
2023-03-15T11:45:24.781Z,100737
2023-03-15T11:51:27.087Z,100732
2023-03-15T11:57:25.443Z,100740
2023-03-15T12:03:25.359Z,100748
2023-03-15T12:09:26.456Z,100754
2023-03-15T12:15:20.608Z,100752
2023-03-15T12:21:13.153Z,100757
2023-03-15T12:27:16.289Z,100749
2023-03-15T12:33:07.212Z,100759
2023-03-15T12:39:00.209Z,100753
2023-03-15T12:44:55.117Z,100749
2023-03-15T12:50:45.044Z,100745
2023-03-15T12:57:03.193Z,100734
2023-03-15T13:03:08.786Z,100722
2023-03-15T13:09:02.937Z,100724
2023-03-15T13:15:06.499Z,100713
2023-03-15T13:20:59.686Z,100711
2023-03-15T13:27:08.706Z,100709
2023-03-15T13:39:18.895Z,100709
2023-03-15T13:45:19.513Z,100726
2023-03-15T13:51:19.273Z,100723
2023-03-15T13:57:20.349Z,100719
2023-03-15T14:03:11.788Z,100718
2023-03-15T14:09:09.467Z,100721
2023-03-15T14:35:05.189Z,100740
2023-03-15T14:40:58.268Z,100734
2023-03-15T14:46:50.595Z,100740
2023-03-15T14:52:48.138Z,100730
2023-03-15T14:58:41.083Z,100734
2023-03-15T15:04:37.136Z,100751
2023-03-15T15:10:36.414Z,100752
2023-03-15T15:16:30.192Z,100757
2023-03-15T15:22:25.244Z,100759
2023-03-15T15:34:09.289Z,100761
2023-03-15T15:40:10.683Z,100753
2023-03-15T15:46:05.541Z,100753
2023-03-15T15:51:56.688Z,100749
2023-03-15T15:57:52.093Z,100741
2023-03-15T16:03:49.364Z,100742
2023-03-15T16:09:50.832Z,100740
2023-03-15T16:15:48.164Z,100738
2023-03-15T16:21:47.974Z,100736
2023-03-15T16:27:42.834Z,100737
2023-03-15T16:33:39.057Z,100742
2023-03-15T16:39:32.677Z,100745
2023-03-15T16:45:31.225Z,100744
2023-03-15T16:57:42.358Z,100760
2023-03-15T17:09:53.931Z,100771
2023-03-15T17:15:51.882Z,100786
2023-03-15T17:21:55.449Z,100784
2023-03-15T17:27:59.596Z,100785
2023-03-15T17:33:51.845Z,100787
2023-03-15T17:46:00.362Z,100797
2023-03-15T17:51:55.346Z,100804
2023-03-15T17:57:57.865Z,100808
2023-03-15T18:04:01.733Z,100808
2023-03-15T18:10:04.321Z,100807
2023-03-15T18:16:14.986Z,100816
2023-03-15T18:22:06.666Z,100811
2023-03-15T18:28:00.566Z,100815
2023-03-15T18:33:51.050Z,100816
2023-03-15T18:39:46.657Z,100821
2023-03-15T18:45:41.418Z,100831
2023-03-15T18:51:32.915Z,100840
2023-03-15T18:57:43.911Z,100846
2023-03-15T19:03:34.581Z,100843
2023-03-15T19:09:27.689Z,100855
2023-03-15T19:15:20.741Z,100850
2023-03-15T19:21:13.340Z,100849
2023-03-15T19:27:04.678Z,100849
2023-03-15T19:32:57.365Z,100844
2023-03-15T19:38:51.305Z,100857
2023-03-15T19:44:41.313Z,100855
2023-03-15T19:50:34.096Z,100850
2023-03-15T19:56:26.190Z,100850
2023-03-15T20:02:19.779Z,100852
2023-03-15T20:08:12.739Z,100858
2023-03-15T20:14:04.887Z,100860
2023-03-15T20:19:56.337Z,100857
2023-03-15T20:25:57.063Z,100855
2023-03-15T20:31:47.848Z,100860
2023-03-15T20:37:39.812Z,100867
2023-03-15T20:43:33.721Z,100872
2023-03-15T20:49:25.461Z,100871
2023-03-15T20:55:17.549Z,100875
2023-03-15T21:01:11.128Z,100867
2023-03-15T21:07:02.841Z,100863
2023-03-15T21:12:58.266Z,100872
2023-03-15T21:18:50.087Z,100870
2023-03-15T21:24:57.958Z,100870
2023-03-15T21:30:47.258Z,100865
2023-03-15T21:36:39.365Z,100848
2023-03-15T21:42:29.753Z,100855
2023-03-15T21:48:20.196Z,100853
2023-03-15T21:54:09.211Z,100853
2023-03-15T21:59:59.404Z,100851
2023-03-15T22:05:50.932Z,100852
2023-03-15T22:11:43.235Z,100845
2023-03-15T22:17:35.757Z,100838
2023-03-15T22:23:31.320Z,100836
2023-03-15T22:29:33.249Z,100833
2023-03-15T22:35:24.819Z,100831
2023-03-15T22:41:17.446Z,100827
2023-03-15T22:47:22.478Z,100826
2023-03-15T22:53:18.190Z,100831
2023-03-15T22:59:23.446Z,100830
2023-03-15T23:05:35.194Z,100827
2023-03-15T23:11:32.839Z,100823
2023-03-15T23:17:30.573Z,100821
2023-03-15T23:23:28.093Z,100825
2023-03-15T23:29:22.667Z,100826
2023-03-15T23:35:45.761Z,100829
2023-03-15T23:41:56.021Z,100823
2023-03-15T23:48:00.245Z,100824
2023-03-15T23:54:04.562Z,100825
